Time;durP1;ratioP1;P1;durP2;ratioP2;P2;SDS_P1;SDS_P2;PMS_P1;PMS_P2;Temp;Humidity;BMP_temperature;BMP_pressure;BME280_temperature;BME280_humidity;BME280_pressure;Samples;Min_cycle;Max_cycle;Signal;HPM_P1;HPM_P2
2022/08/15 00:00:00;;;;;;;23.65;17.23;;;24.40;98.90;;;;;;5097454;28;20050;-71
2022/08/15 00:02:26;;;;;;;23.33;17.90;;;;;;;;;;5085790;28;20039;-71
2022/08/15 00:04:52;;;;;;;23.25;16.67;;;23.30;98.60;;;;;;5094722;28;20035;-71
2022/08/15 00:07:18;;;;;;;25.70;16.65;;;24.60;99.00;;;;;;5114424;28;20042;-71
2022/08/15 00:09:44;;;;;;;22.02;16.80;;;;;;;;;;5113793;28;20074;-71
2022/08/15 00:12:10;;;;;;;23.58;16.02;;;;;;;;;;5095404;28;20063;-71
2022/08/15 00:14:36;;;;;;;21.70;15.65;;;22.80;98.60;;;;;;5094140;28;20105;-71
2022/08/15 00:17:09;;;;;;;21.98;16.40;;;24.00;94.90;;;;;;5110101;28;20451;-71
2022/08/15 00:19:38;;;;;;;28.65;17.30;;;22.50;98.90;;;;;;5100361;28;20120;-71
2022/08/15 00:22:07;;;;;;;25.63;17.00;;;22.70;98.70;;;;;;5112555;28;20047;-71
2022/08/15 00:24:36;;;;;;;23.05;15.77;;;23.90;99.00;;;;;;5114586;28;20560;-71
2022/08/15 00:27:06;;;;;;;23.02;15.65;;;23.80;94.80;;;;;;5086472;28;20044;-71
2022/08/15 00:29:33;;;;;;;25.42;15.75;;;23.30;98.80;;;;;;5102034;28;20485;-71
2022/08/15 00:32:00;;;;;;;24.13;15.70;;;22.60;98.70;;;;;;5104341;28;20047;-71
2022/08/15 00:34:25;;;;;;;27.60;16.88;;;23.50;94.60;;;;;;5115661;28;20348;-71
2022/08/15 00:36:51;;;;;;;21.90;15.20;;;22.20;94.10;;;;;;5098583;28;20040;-71
2022/08/15 00:39:23;;;;;;;23.15;15.77;;;23.70;95.00;;;;;;5093621;28;20036;-71
2022/08/15 00:41:49;;;;;;;22.83;15.57;;;;;;;;;;5107735;28;20143;-71
2022/08/15 00:44:30;;;;;;;21.23;15.48;;;23.50;94.00;;;;;;5095341;28;20028;-71
2022/08/15 00:47:04;;;;;;;18.48;13.68;;;23.10;99.20;;;;;;5099070;28;20036;-71
2022/08/15 00:49:32;;;;;;;20.73;14.15;;;24.40;95.90;;;;;;5098633;28;20043;-71
2022/08/15 00:52:24;;;;;;;22.80;15.55;;;24.30;99.60;;;;;;5107157;28;20044;-71
2022/08/15 00:54:57;;;;;;;23.58;14.88;;;22.60;99.20;;;;;;5113476;28;20543;-71
2022/08/15 00:57:30;;;;;;;22.48;14.90;;;22.40;96.70;;;;;;5079780;28;20040;-71
2022/08/15 01:00:01;;;;;;;22.00;15.48;;;23.40;97.50;;;;;;5094725;28;20036;-71
2022/08/15 01:02:30;;;;;;;26.63;15.75;;;23.10;95.10;;;;;;5109382;28;20109;-71
2022/08/15 01:04:56;;;;;;;21.27;16.33;;;22.80;99.20;;;;;;5093064;28;20476;-71
2022/08/15 01:07:23;;;;;;;27.00;15.68;;;23.40;95.30;;;;;;5108208;28;20118;-71
2022/08/15 01:09:50;;;;;;;26.25;14.82;;;23.20;99.40;;;;;;5113098;28;20036;-71
2022/08/15 01:12:39;;;;;;;27.10;15.98;;;23.60;99.50;;;;;;5081771;28;20064;-71
2022/08/15 01:15:10;;;;;;;26.50;14.90;;;23.30;99.50;;;;;;5077146;28;20051;-71
2022/08/15 01:17:36;;;;;;;27.10;15.05;;;22.20;97.10;;;;;;5126769;27;20036;-71
2022/08/15 01:20:16;;;;;;;29.60;16.52;;;22.60;99.40;;;;;;5129910;27;20036;-71
2022/08/15 01:23:20;;;;;;;22.05;15.40;;;21.80;99.20;;;;;;5096657;28;20036;-71
2022/08/15 01:25:55;;;;;;;24.30;16.35;;;22.00;99.30;;;;;;5095487;28;20047;-71
2022/08/15 01:28:35;;;;;;;25.67;16.50;;;23.00;94.40;;;;;;5091246;28;20046;-71
2022/08/15 01:31:12;;;;;;;24.25;16.35;;;23.30;99.60;;;;;;5106578;28;20453;-72
2022/08/15 01:33:42;;;;;;;24.17;15.27;;;21.90;99.20;;;;;;5092697;28;20040;-71
2022/08/15 01:36:09;;;;;;;25.88;15.15;;;23.00;95.30;;;;;;5097392;28;20098;-72
2022/08/15 01:38:39;;;;;;;26.70;15.50;;;22.40;99.40;;;;;;5112723;28;20052;-71
2022/08/15 01:41:36;;;;;;;24.73;15.57;;;23.90;96.40;;;;;;5108749;28;20036;-71
2022/08/15 01:44:13;;;;;;;35.58;17.35;;;23.20;98.60;;;;;;5092531;28;20112;-71
2022/08/15 01:46:50;;;;;;;26.52;16.95;;;23.30;99.70;;;;;;5105742;28;20031;-71
2022/08/15 01:49:23;;;;;;;21.80;14.98;;;22.30;99.50;;;;;;5092719;28;20044;-71
2022/08/15 01:51:51;;;;;;;26.23;16.08;;;22.90;95.50;;;;;;5084140;28;20043;-71
2022/08/15 01:54:19;;;;;;;26.42;17.50;;;22.80;95.50;;;;;;5112609;28;20491;-71
2022/08/15 01:56:46;;;;;;;27.17;17.25;;;23.40;99.90;;;;;;5104387;28;20119;-71
2022/08/15 01:59:16;;;;;;;24.75;16.33;;;22.80;99.80;;;;;;5093442;28;20499;-71
2022/08/15 02:01:44;;;;;;;21.55;15.48;;;22.60;95.70;;;;;;5099125;28;20043;-71
2022/08/15 02:04:12;;;;;;;28.58;17.15;;;22.00;95.80;;;;;;5112907;28;20058;-71
2022/08/15 02:06:40;;;;;;;24.80;16.50;;;21.50;99.70;;;;;;5105791;28;20047;-71
2022/08/15 02:09:08;;;;;;;28.20;17.65;;;22.90;99.90;;;;;;5092085;28;20051;-71
2022/08/15 02:11:35;;;;;;;30.02;16.77;;;23.50;99.90;;;;;;5096549;28;20087;-71
2022/08/15 02:14:01;;;;;;;23.63;18.05;;;22.60;95.90;;;;;;5112578;28;20043;-71
2022/08/15 02:16:31;;;;;;;29.98;18.17;;;23.30;98.40;;;;;;5103234;28;20057;-71
2022/08/15 02:18:59;;;;;;;26.75;18.13;;;22.20;99.90;;;;;;5093026;28;20048;-71
2022/08/15 02:21:25;;;;;;;24.40;16.92;;;21.40;99.80;;;;;;5093923;28;20510;-71
2022/08/15 02:23:51;;;;;;;27.98;17.27;;;21.50;99.80;;;;;;5107323;28;20036;-71
2022/08/15 02:26:17;;;;;;;23.70;15.82;;;23.50;96.40;;;;;;5125946;27;20392;-71
2022/08/15 02:28:43;;;;;;;22.73;16.58;;;23.30;99.90;;;;;;5112541;28;20062;-71
2022/08/15 02:31:15;;;;;;;26.73;17.20;;;23.20;99.90;;;;;;5111678;28;20480;-71
2022/08/15 02:33:43;;;;;;;28.17;17.42;;;22.40;95.70;;;;;;5111031;28;20043;-71
2022/08/15 02:36:09;;;;;;;27.63;17.48;;;23.30;99.90;;;;;;5107474;28;20373;-71
2022/08/15 02:38:35;;;;;;;22.40;16.50;;;23.20;99.90;;;;;;5109984;28;20046;-71
2022/08/15 02:41:01;;;;;;;26.80;16.33;;;23.10;99.90;;;;;;5112535;28;20073;-71
2022/08/15 02:43:27;;;;;;;25.23;17.13;;;22.50;99.90;;;;;;5095951;28;20044;-71
2022/08/15 02:45:53;;;;;;;27.35;17.70;;;21.10;99.90;;;;;;5091831;28;20055;-71
2022/08/15 02:48:19;;;;;;;25.38;18.40;;;;;;;;;;5097903;28;20032;-71
2022/08/15 02:50:46;;;;;;;27.42;18.52;;;23.10;99.90;;;;;;5104174;28;20441;-71
2022/08/15 02:53:17;;;;;;;28.98;18.02;;;22.10;96.90;;;;;;5099206;28;20047;-71
2022/08/15 02:55:46;;;;;;;27.45;18.55;;;22.10;96.90;;;;;;5091555;28;20043;-71
2022/08/15 02:58:13;;;;;;;31.42;19.17;;;20.90;99.90;;;;;;5103292;28;20092;-71
2022/08/15 03:00:41;;;;;;;29.98;20.40;;;22.30;99.90;;;;;;5111896;28;20050;-71
2022/08/15 03:03:14;;;;;;;27.45;19.42;;;22.70;99.90;;;;;;5106025;28;20088;-71
2022/08/15 03:05:43;;;;;;;26.33;17.98;;;22.20;99.90;;;;;;5098365;28;20464;-71
2022/08/15 03:08:09;;;;;;;32.20;19.33;;;;;;;;;;5084935;28;20387;-71
2022/08/15 03:10:37;;;;;;;31.75;20.38;;;22.00;96.80;;;;;;5111773;28;20056;-71
2022/08/15 03:13:11;;;;;;;30.33;19.85;;;21.00;99.90;;;;;;5104863;28;20031;-71
2022/08/15 03:15:45;;;;;;;30.20;19.67;;;23.00;99.90;;;;;;5111983;28;20081;-71
2022/08/15 03:18:12;;;;;;;28.35;20.00;;;22.10;96.80;;;;;;5103752;28;20043;-71
2022/08/15 03:20:40;;;;;;;28.17;19.30;;;21.10;99.90;;;;;;5115640;28;20059;-71
2022/08/15 03:23:07;;;;;;;29.35;18.73;;;21.40;99.90;;;;;;5107695;28;20039;-71
2022/08/15 03:25:42;;;;;;;30.77;19.83;;;22.80;99.90;;;;;;5116787;28;20495;-71
2022/08/15 03:28:09;;;;;;;28.95;18.77;;;22.60;96.60;;;;;;5113933;28;20379;-71
2022/08/15 03:30:37;;;;;;;31.73;20.50;;;22.10;96.80;;;;;;5114297;28;20450;-71
2022/08/15 03:33:05;;;;;;;32.45;20.98;;;22.00;96.70;;;;;;5106328;28;20139;-71
2022/08/15 03:35:36;;;;;;;33.90;21.75;;;22.40;99.50;;;;;;5115400;28;20119;-70
2022/08/15 03:38:02;;;;;;;30.20;20.73;;;;;;;;;;5111273;28;20040;-71
2022/08/15 03:40:29;;;;;;;30.55;20.13;;;22.60;99.90;;;;;;5103611;28;20043;-71
2022/08/15 03:42:58;;;;;;;29.17;20.95;;;21.70;99.90;;;;;;5112408;28;20048;-71
2022/08/15 03:45:26;;;;;;;30.50;20.70;;;20.70;99.90;;;;;;5078143;28;20048;-71
2022/08/15 03:47:53;;;;;;;32.67;21.23;;;21.90;99.90;;;;;;5082684;28;20035;-71
2022/08/15 03:50:20;;;;;;;29.48;21.70;;;;;;;;;;5094939;28;20122;-71
2022/08/15 03:53:01;;;;;;;32.63;22.08;;;22.40;99.90;;;;;;5109854;28;20043;-71
2022/08/15 03:55:29;;;;;;;38.72;22.23;;;21.60;96.80;;;;;;5095861;28;20122;-71
2022/08/15 03:57:57;;;;;;;33.97;22.70;;;22.20;99.90;;;;;;5094592;28;20032;-71
2022/08/15 04:00:30;;;;;;;39.25;25.33;;;20.50;99.90;;;;;;5094524;28;20484;-71
2022/08/15 04:03:10;;;;;;;36.15;23.77;;;22.60;99.90;;;;;;5095278;28;20097;-71
2022/08/15 04:05:36;;;;;;;36.35;23.05;;;22.10;99.90;;;;;;5111167;28;20062;-71
2022/08/15 04:08:05;;;;;;;34.85;23.63;;;22.50;99.90;;;;;;5114247;28;20052;-71
2022/08/15 04:10:31;;;;;;;32.33;22.92;;;20.50;99.90;;;;;;5094153;28;20094;-71
2022/08/15 04:12:58;;;;;;;35.95;23.17;;;22.50;99.90;;;;;;5077325;28;20396;-71
2022/08/15 04:15:24;;;;;;;40.25;25.08;;;20.80;99.90;;;;;;5114320;28;20348;-71
2022/08/15 04:17:52;;;;;;;40.45;24.95;;;20.90;99.90;;;;;;5096368;28;20480;-71
2022/08/15 04:20:18;;;;;;;37.83;23.80;;;22.50;99.90;;;;;;5111261;28;20131;-71
2022/08/15 04:22:48;;;;;;;39.63;25.27;;;21.50;97.00;;;;;;5112736;28;20494;-71
2022/08/15 04:25:25;;;;;;;41.92;24.38;;;21.40;96.00;;;;;;5097807;28;20384;-71
2022/08/15 04:27:53;;;;;;;36.85;24.42;;;21.00;96.80;;;;;;5094016;28;20374;-71
2022/08/15 04:30:22;;;;;;;42.15;24.85;;;21.90;99.90;;;;;;5104465;28;20036;-71
2022/08/15 04:32:49;;;;;;;36.20;24.15;;;;;;;;;;5112337;28;20039;-71
2022/08/15 04:35:15;;;;;;;33.22;23.90;;;22.10;99.90;;;;;;5097614;28;20040;-71
2022/08/15 04:37:41;;;;;;;37.10;24.02;;;22.00;99.90;;;;;;5097521;28;20051;-71
2022/08/15 04:40:12;;;;;;;36.85;23.00;;;21.00;99.90;;;;;;5100288;28;20044;-71
2022/08/15 04:42:46;;;;;;;38.08;25.77;;;20.40;99.90;;;;;;5077138;28;20476;-71
2022/08/15 04:45:12;;;;;;;39.05;24.70;;;21.60;97.50;;;;;;5100663;28;20036;-71
2022/08/15 04:47:38;;;;;;;40.10;24.00;;;;;;;;;;5093565;28;20410;-71
2022/08/15 04:50:04;;;;;;;37.83;24.60;;;20.50;99.90;;;;;;5105039;28;20087;-71
2022/08/15 04:52:30;;;;;;;40.83;25.55;;;21.00;99.90;;;;;;5096735;28;20391;-71
2022/08/15 04:54:57;;;;;;;40.20;22.85;;;21.70;99.90;;;;;;5103156;28;20040;-71
2022/08/15 04:57:23;;;;;;;35.25;24.15;;;21.50;99.90;;;;;;5093580;28;20063;-71
2022/08/15 04:59:49;;;;;;;37.13;23.73;;;21.40;99.90;;;;;;5107051;28;20074;-71
2022/08/15 05:02:24;;;;;;;42.13;24.67;;;21.20;97.30;;;;;;5113871;28;20079;-71
2022/08/15 05:04:50;;;;;;;41.95;24.55;;;20.30;99.90;;;;;;5106411;28;20043;-72
2022/08/15 05:07:16;;;;;;;34.38;23.25;;;20.30;99.90;;;;;;5097291;28;20043;-71
2022/08/15 05:09:43;;;;;;;41.13;26.02;;;22.40;99.90;;;;;;5078960;28;20044;-71
2022/08/15 05:12:09;;;;;;;37.90;25.30;;;22.50;99.90;;;;;;5094414;28;20205;-71
2022/08/15 05:14:36;;;;;;;38.42;24.50;;;20.90;99.90;;;;;;5099296;28;20499;-71
2022/08/15 05:17:02;;;;;;;40.90;26.30;;;22.20;99.90;;;;;;5101441;28;20373;-71
2022/08/15 05:19:28;;;;;;;35.35;24.55;;;22.50;99.90;;;;;;5099580;28;20448;-71
2022/08/15 05:21:54;;;;;;;39.63;24.77;;;22.00;99.90;;;;;;5101223;28;20124;-71
2022/08/15 05:24:20;;;;;;;40.15;25.52;;;21.50;99.90;;;;;;5111937;28;20043;-71
2022/08/15 05:26:46;;;;;;;39.38;26.50;;;;;;;;;;5093014;28;20040;-71
2022/08/15 05:29:12;;;;;;;35.33;24.33;;;22.30;99.90;;;;;;5075906;28;20047;-71
2022/08/15 05:31:38;;;;;;;44.20;23.48;;;22.70;99.90;;;;;;5111748;28;20055;-70
2022/08/15 05:34:04;;;;;;;43.90;25.55;;;;;;;;;;5112742;28;20039;-71
2022/08/15 05:36:33;;;;;;;41.85;26.05;;;21.80;97.30;;;;;;5096754;28;20062;-71
2022/08/15 05:39:23;;;;;;;37.63;23.77;;;22.30;99.90;;;;;;5101136;28;20040;-71
2022/08/15 05:42:01;;;;;;;42.65;24.55;;;21.10;99.40;;;;;;5100934;28;20071;-71
2022/08/15 05:44:54;;;;;;;38.85;25.65;;;21.00;99.90;;;;;;5085984;28;20468;-71
2022/08/15 05:47:33;;;;;;;;;;;22.00;96.60;;;;;;5098788;28;20070;-71
2022/08/15 05:50:11;;;;;;;37.47;24.27;;;22.00;96.20;;;;;;5102549;28;20401;-71
2022/08/15 05:52:58;;;;;;;41.90;24.52;;;22.80;99.90;;;;;;5103416;28;20040;-71
2022/08/15 05:55:47;;;;;;;44.75;25.33;;;21.40;99.90;;;;;;5103332;28;20040;-71
2022/08/15 05:58:13;;;;;;;41.10;26.17;;;;;;;;;;5100540;28;20079;-71
2022/08/15 06:00:44;;;;;;;37.63;25.67;;;22.00;99.90;;;;;;5111629;28;20102;-71
2022/08/15 06:03:23;;;;;;;42.40;25.15;;;22.90;99.90;;;;;;5109533;28;20488;-71
2022/08/15 06:05:54;;;;;;;37.45;25.48;;;22.90;99.90;;;;;;5097522;28;20115;-71
2022/08/15 06:08:23;;;;;;;41.05;27.10;;;20.80;99.70;;;;;;5112097;28;20040;-71
2022/08/15 06:10:54;;;;;;;45.63;28.35;;;22.80;99.90;;;;;;5103279;28;20056;-71
2022/08/15 06:13:24;;;;;;;49.38;30.20;;;22.80;99.90;;;;;;5075437;28;20051;-71
2022/08/15 06:16:03;;;;;;;43.22;27.88;;;22.10;96.10;;;;;;5098983;28;20043;-71
2022/08/15 06:18:33;;;;;;;45.75;27.90;;;22.30;99.90;;;;;;5088130;28;20040;-71
2022/08/15 06:21:21;;;;;;;44.92;28.02;;;21.90;96.00;;;;;;5099507;28;20482;-71
2022/08/15 06:24:02;;;;;;;46.28;29.02;;;22.20;99.90;;;;;;5111800;28;20035;-71
2022/08/15 06:26:28;;;;;;;37.53;25.60;;;;;;;;;;5100773;28;20040;-71
2022/08/15 06:28:53;;;;;;;41.10;25.92;;;21.30;99.90;;;;;;5092225;28;20051;-71
2022/08/15 06:31:31;;;;;;;40.30;26.73;;;23.10;99.90;;;;;;5077733;28;20390;-71
2022/08/15 06:34:18;;;;;;;35.40;24.70;;;22.30;99.90;;;;;;5107141;28;20040;-71
2022/08/15 06:36:52;;;;;;;50.10;25.48;;;22.70;99.90;;;;;;5087515;28;20047;-71
2022/08/15 06:39:27;;;;;;;42.75;24.65;;;23.10;99.90;;;;;;5112182;28;20051;-71
2022/08/15 06:42:19;;;;;;;37.13;23.88;;;23.20;99.90;;;;;;5098708;28;20109;-71
2022/08/15 06:44:50;;;;;;;;;;;22.40;96.50;;;;;;5104405;28;20070;-71
2022/08/15 06:47:19;;;;;;;32.38;21.85;;;22.40;99.90;;;;;;5094137;28;19915;-71
2022/08/15 06:49:48;;;;;;;30.17;21.10;;;22.20;99.90;;;;;;5092471;28;20484;-73
2022/08/15 06:52:17;;;;;;;34.78;21.45;;;23.20;99.90;;;;;;5099463;28;20119;-72
2022/08/15 06:54:43;;;;;;;32.88;20.80;;;23.10;99.90;;;;;;5106075;28;20104;-72
2022/08/15 06:57:33;;;;;;;34.20;20.38;;;22.90;99.90;;;;;;5083582;28;20122;-71
2022/08/15 07:00:16;;;;;;;32.92;20.30;;;21.80;99.90;;;;;;5078866;28;20131;-72
2022/08/15 07:02:50;;;;;;;36.65;21.23;;;23.40;99.90;;;;;;5114049;28;20031;-71
2022/08/15 07:05:40;;;;;;;28.73;20.40;;;22.60;99.10;;;;;;5114260;28;20082;-71
2022/08/15 07:08:21;;;;;;;40.38;20.55;;;23.00;94.90;;;;;;5100056;28;20386;-71
2022/08/15 07:11:02;;;;;;;36.45;21.35;;;23.80;99.90;;;;;;5114547;28;20091;-71
2022/08/15 07:13:58;;;;;;;29.45;18.95;;;24.00;99.90;;;;;;5095405;28;20051;-71
2022/08/15 07:16:33;;;;;;;36.95;22.08;;;23.40;99.90;;;;;;5100650;28;20070;-71
2022/08/15 07:19:01;;;;;;;33.63;21.67;;;24.00;98.30;;;;;;5106978;28;20044;-71
2022/08/15 07:21:28;;;;;;;32.60;21.70;;;23.30;99.80;;;;;;5106505;28;20131;-71
2022/08/15 07:24:04;;;;;;;36.05;19.80;;;24.10;99.80;;;;;;5103746;28;20036;-71
2022/08/15 07:26:38;;;;;;;29.77;20.48;;;22.90;96.80;;;;;;5100219;28;20161;-74
2022/08/15 07:29:13;;;;;;;31.08;19.90;;;22.70;99.20;;;;;;5095883;28;20079;-71
2022/08/15 07:31:43;;;;;;;31.25;20.02;;;24.10;99.40;;;;;;5100618;28;20035;-70
2022/08/15 07:34:19;;;;;;;29.70;18.17;;;23.70;99.10;;;;;;5115276;28;20082;-70
2022/08/15 07:37:01;;;;;;;26.58;17.67;;;24.30;99.10;;;;;;5105210;28;20039;-70
2022/08/15 07:39:36;;;;;;;29.20;18.02;;;24.40;99.10;;;;;;5115589;28;20040;-70
2022/08/15 07:42:16;;;;;;;30.15;18.15;;;24.20;98.90;;;;;;5107676;28;20492;-70
2022/08/15 07:44:53;;;;;;;33.28;17.42;;;24.40;98.80;;;;;;5089899;28;20039;-70
2022/08/15 07:47:30;;;;;;;28.42;17.35;;;23.30;94.80;;;;;;5105440;28;20043;-70
2022/08/15 07:50:11;;;;;;;31.33;17.25;;;24.00;97.60;;;;;;5115031;28;20054;-70
2022/08/15 07:52:38;;;;;;;28.92;17.65;;;23.10;97.90;;;;;;5104086;28;20044;-72
2022/08/15 07:55:13;;;;;;;27.00;15.20;;;23.00;97.70;;;;;;5095793;28;20353;-72
2022/08/15 07:57:41;;;;;;;29.00;16.33;;;23.90;95.70;;;;;;5105128;28;20036;-70
2022/08/15 08:00:16;;;;;;;24.05;15.90;;;24.70;95.90;;;;;;5100501;28;20524;-72
2022/08/15 08:02:56;;;;;;;27.77;15.80;;;24.80;98.00;;;;;;5077640;28;20051;-72
2022/08/15 08:05:27;;;;;;;33.42;16.65;;;24.20;97.80;;;;;;5113260;28;20039;-72
2022/08/15 08:07:54;;;;;;;28.02;15.57;;;24.60;97.80;;;;;;5103030;28;20480;-72
2022/08/15 08:10:36;;;;;;;30.42;14.75;;;24.30;97.60;;;;;;5094233;28;20056;-72
2022/08/15 08:13:29;;;;;;;25.92;16.85;;;24.40;93.20;;;;;;5106268;28;20043;-72
2022/08/15 08:16:13;;;;;;;27.90;15.63;;;24.80;97.30;;;;;;5114492;28;20050;-72
2022/08/15 08:19:09;;;;;;;24.77;15.93;;;24.70;97.00;;;;;;5097657;28;20124;-72
2022/08/15 08:21:50;;;;;;;22.23;15.38;;;24.50;96.70;;;;;;5094724;28;20079;-72
2022/08/15 08:24:49;;;;;;;24.15;14.82;;;25.30;96.80;;;;;;5116287;27;20060;-72
2022/08/15 08:27:35;;;;;;;20.85;14.23;;;25.30;94.10;;;;;;5118151;27;20047;-72
2022/08/15 08:30:14;;;;;;;22.40;14.00;;;24.70;96.20;;;;;;5046455;28;20040;-72
2022/08/15 08:33:28;;;;;;;19.98;12.80;;;25.10;95.90;;;;;;5098394;28;20036;-72
2022/08/15 08:36:11;;;;;;;19.52;12.30;;;25.30;95.70;;;;;;5114195;28;20098;-72
2022/08/15 08:39:17;;;;;;;18.77;13.13;;;25.20;90.40;;;;;;5123377;27;20051;-72
2022/08/15 08:42:06;;;;;;;19.88;12.82;;;25.10;90.40;;;;;;5034267;28;20484;-72
2022/08/15 08:44:58;;;;;;;17.63;12.32;;;24.90;95.30;;;;;;5093493;28;20475;-72
2022/08/15 08:47:39;;;;;;;16.10;11.75;;;25.30;89.90;;;;;;5085101;28;20136;-73
2022/08/15 08:50:29;;;;;;;20.15;12.15;;;25.60;89.30;;;;;;5093283;28;20101;-73
2022/08/15 08:53:19;;;;;;;21.80;12.23;;;25.60;89.00;;;;;;5093155;28;20048;-73
2022/08/15 08:55:58;;;;;;;18.80;12.73;;;25.90;88.30;;;;;;5093122;28;20144;-72
2022/08/15 08:58:33;;;;;;;19.17;12.05;;;26.00;87.80;;;;;;5093018;28;20051;-71
2022/08/15 09:00:59;;;;;;;21.80;11.93;;;26.60;94.00;;;;;;5091986;28;20044;-72
2022/08/15 09:03:34;;;;;;;20.98;14.65;;;25.90;86.70;;;;;;5120812;27;20048;-72
2022/08/15 09:06:01;;;;;;;22.48;15.98;;;26.60;91.00;;;;;;5098820;28;20032;-73
2022/08/15 09:08:26;;;;;;;23.08;15.90;;;25.90;93.60;;;;;;5098866;28;20050;-73
2022/08/15 09:10:59;;;;;;;23.50;16.08;;;26.30;93.90;;;;;;5093264;28;20060;-73
2022/08/15 09:13:34;;;;;;;28.85;16.73;;;26.70;93.90;;;;;;5101769;28;20040;-73
2022/08/15 09:16:21;;;;;;;27.88;16.73;;;26.70;93.80;;;;;;5093750;28;20048;-72
2022/08/15 09:19:04;;;;;;;27.05;16.23;;;26.50;89.40;;;;;;5099525;28;20054;-72
2022/08/15 09:21:30;;;;;;;27.67;17.73;;;26.60;94.00;;;;;;5099312;28;20040;-72
2022/08/15 09:23:56;;;;;;;26.67;17.25;;;27.30;94.30;;;;;;5101785;28;20475;-72
2022/08/15 09:26:45;;;;;;;25.67;18.13;;;26.90;87.60;;;;;;5099162;28;20126;-72
2022/08/15 09:29:20;;;;;;;25.85;18.70;;;26.90;94.00;;;;;;5101996;28;20503;-72
2022/08/15 09:32:14;;;;;;;25.52;17.50;;;27.00;93.90;;;;;;5093630;28;20047;-76
2022/08/15 09:34:45;;;;;;;24.90;16.52;;;26.70;86.70;;;;;;5099439;28;20043;-72
2022/08/15 09:37:20;;;;;;;23.52;16.67;;;27.60;94.00;;;;;;5092634;28;20043;-72
2022/08/15 09:40:00;;;;;;;26.90;17.58;;;27.20;93.10;;;;;;5105397;28;20047;-72
2022/08/15 09:42:44;;;;;;;25.80;18.27;;;27.30;88.60;;;;;;5076667;28;20127;-72
2022/08/15 09:45:34;;;;;;;32.50;17.08;;;27.20;93.20;;;;;;5097664;28;20048;-72
2022/08/15 09:48:31;;;;;;;34.22;18.63;;;26.90;93.10;;;;;;5094317;28;20071;-72
2022/08/15 09:51:18;;;;;;;25.55;17.05;;;27.60;85.70;;;;;;5089597;28;20031;-72
2022/08/15 09:53:56;;;;;;;26.80;17.02;;;28.00;93.40;;;;;;5106717;28;20105;-72
2022/08/15 09:56:25;;;;;;;27.48;16.75;;;28.00;93.20;;;;;;5075582;28;20138;-73
2022/08/15 09:59:22;;;;;;;26.83;17.00;;;27.60;85.00;;;;;;5094481;28;20114;-72
2022/08/15 10:02:20;;;;;;;27.77;17.95;;;27.90;84.60;;;;;;5105509;28;20501;-72
2022/08/15 10:04:49;;;;;;;27.02;19.55;;;27.40;88.50;;;;;;5080111;28;20036;-72
2022/08/15 10:07:15;;;;;;;27.30;16.70;;;27.70;92.30;;;;;;5093453;28;20032;-72
2022/08/15 10:09:59;;;;;;;26.77;17.75;;;28.20;92.50;;;;;;5100037;28;20054;-72
2022/08/15 10:12:25;;;;;;;29.58;19.13;;;;;;;;;;5110232;28;20048;-72
2022/08/15 10:15:02;;;;;;;25.83;18.15;;;27.70;82.80;;;;;;5093353;28;20132;-72
2022/08/15 10:17:40;;;;;;;25.00;16.88;;;28.20;85.60;;;;;;5102259;28;20044;-72
2022/08/15 10:20:15;;;;;;;22.27;14.75;;;28.20;88.00;;;;;;5100268;28;20036;-72
2022/08/15 10:23:07;;;;;;;24.40;16.33;;;28.10;88.50;;;;;;5121634;27;20492;-72
2022/08/15 10:25:36;;;;;;;33.03;20.77;;;28.40;86.40;;;;;;5097571;28;20044;-72
2022/08/15 10:28:11;;;;;;;27.65;18.80;;;28.30;83.50;;;;;;5106004;28;20042;-72
2022/08/15 10:31:05;;;;;;;35.53;22.52;;;28.20;92.30;;;;;;5104050;28;20048;-72
2022/08/15 10:33:31;;;;;;;31.88;21.63;;;;;;;;;;5086032;28;20134;-72
2022/08/15 10:36:21;;;;;;;35.92;23.35;;;28.10;90.90;;;;;;5111340;28;20039;-72
2022/08/15 10:39:05;;;;;;;35.28;21.95;;;28.50;92.90;;;;;;5116817;28;20479;-72
2022/08/15 10:41:45;;;;;;;37.15;21.60;;;28.40;90.90;;;;;;5106837;28;20105;-72
2022/08/15 10:45:06;;;;;;;31.27;21.30;;;28.80;92.50;;;;;;5104142;28;20035;-72
2022/08/15 10:48:09;;;;;;;33.97;23.63;;;28.40;87.60;;;;;;5049372;28;20040;-72
2022/08/15 10:50:41;;;;;;;38.00;24.02;;;28.40;92.10;;;;;;5109355;28;20035;-72
2022/08/15 10:53:27;;;;;;;32.85;21.95;;;29.50;83.30;;;;;;5104377;28;20118;-72
2022/08/15 10:56:11;;;;;;;32.20;20.83;;;29.10;92.00;;;;;;5109483;28;20048;-72
2022/08/15 10:58:37;;;;;;;33.08;21.38;;;29.00;91.80;;;;;;5110213;28;20043;-72
2022/08/15 11:01:12;;;;;;;42.80;23.42;;;29.10;91.60;;;;;;5108116;28;20043;-72
2022/08/15 11:03:48;;;;;;;33.50;23.02;;;28.70;91.70;;;;;;5110412;28;20039;-72
2022/08/15 11:06:16;;;;;;;42.95;21.60;;;28.20;91.80;;;;;;5107770;28;20036;-72
2022/08/15 11:08:52;;;;;;;37.63;21.30;;;28.70;85.00;;;;;;5101841;28;20032;-72
2022/08/15 11:11:21;;;;;;;38.85;25.85;;;28.90;84.60;;;;;;5104635;28;20059;-72
2022/08/15 11:13:57;;;;;;;33.40;23.13;;;28.80;91.60;;;;;;5099900;28;20048;-72
2022/08/15 11:16:37;;;;;;;41.58;25.27;;;28.40;82.90;;;;;;5083228;28;20040;-72
2022/08/15 11:19:19;;;;;;;31.08;20.92;;;28.40;82.50;;;;;;5102977;28;20055;-73
2022/08/15 11:21:55;;;;;;;34.33;21.65;;;28.30;91.90;;;;;;5109745;28;20046;-72
2022/08/15 11:24:40;;;;;;;39.88;24.50;;;27.50;91.70;;;;;;5098378;28;20032;-71
2022/08/15 11:27:16;;;;;;;35.30;23.13;;;28.10;91.90;;;;;;5095022;28;20061;-71
2022/08/15 11:29:44;;;;;;;32.42;20.40;;;28.40;91.90;;;;;;5106524;28;20043;-71
2022/08/15 11:32:22;;;;;;;39.58;27.65;;;28.60;87.30;;;;;;5082508;28;20088;-71
2022/08/15 11:34:50;;;;;;;44.63;27.98;;;28.20;87.80;;;;;;5098017;28;20032;-71
2022/08/15 11:37:20;;;;;;;36.40;20.75;;;27.70;84.10;;;;;;5099524;28;20052;-71
2022/08/15 11:40:04;;;;;;;39.30;23.83;;;28.10;85.50;;;;;;5089102;28;20062;-71
2022/08/15 11:42:38;;;;;;;36.55;21.02;;;27.70;91.20;;;;;;5096864;28;20036;-71
2022/08/15 11:45:17;;;;;;;39.17;19.90;;;28.00;91.20;;;;;;5095159;28;20033;-71
2022/08/15 11:47:47;;;;;;;29.75;19.50;;;26.80;90.80;;;;;;5095838;28;20040;-71
2022/08/15 11:50:29;;;;;;;32.47;22.92;;;27.10;91.10;;;;;;5114840;28;20097;-70
2022/08/15 11:53:01;;;;;;;28.63;17.50;;;27.60;83.70;;;;;;5094694;28;20044;-71
2022/08/15 11:55:29;;;;;;;34.03;19.00;;;;;;;;;;5094745;28;20054;-70
2022/08/15 11:58:02;;;;;;;27.15;16.10;;;27.70;91.10;;;;;;5115195;28;20464;-71
2022/08/15 12:00:38;;;;;;;21.35;13.80;;;27.30;90.90;;;;;;5108226;28;20136;-72
2022/08/15 12:03:34;;;;;;;17.80;12.52;;;26.80;90.40;;;;;;5115078;28;20046;-72
2022/08/15 12:06:12;;;;;;;26.40;14.48;;;26.50;90.00;;;;;;5110405;28;20032;-72
2022/08/15 12:08:39;;;;;;;20.83;12.77;;;27.10;79.50;;;;;;5094476;28;20036;-72
2022/08/15 12:11:21;;;;;;;18.80;12.23;;;27.70;85.30;;;;;;5098451;28;20204;-72
2022/08/15 12:13:57;;;;;;;15.98;10.57;;;27.10;77.60;;;;;;5114432;28;20502;-72
2022/08/15 12:16:33;;;;;;;19.63;11.77;;;27.90;89.70;;;;;;5099534;28;20147;-72
2022/08/15 12:19:23;;;;;;;17.90;11.70;;;26.90;88.60;;;;;;5111316;28;20046;-72
2022/08/15 12:21:50;;;;;;;16.90;10.60;;;27.60;88.50;;;;;;5102202;28;20039;-72
2022/08/15 12:24:29;;;;;;;18.55;11.23;;;27.80;88.40;;;;;;5112811;28;20459;-71
2022/08/15 12:27:02;;;;;;;17.63;10.40;;;27.60;88.30;;;;;;5099665;28;20063;-71
2022/08/15 12:29:31;;;;;;;17.70;11.25;;;27.30;78.10;;;;;;5099822;28;20096;-71
2022/08/15 12:31:58;;;;;;;24.42;11.65;;;28.10;83.60;;;;;;5091725;28;20048;-71
2022/08/15 12:34:32;;;;;;;19.85;10.27;;;27.90;87.50;;;;;;5108110;28;20085;-71
2022/08/15 12:37:00;;;;;;;15.88;9.57;;;27.50;77.30;;;;;;5120857;27;20040;-71
2022/08/15 12:39:27;;;;;;;13.68;9.45;;;;;;;;;;5101656;28;20040;-72
2022/08/15 12:41:54;;;;;;;12.55;7.53;;;27.50;76.00;;;;;;5102534;28;20072;-71
2022/08/15 12:44:22;;;;;;;10.32;7.50;;;28.00;86.00;;;;;;5102907;28;20092;-71
2022/08/15 12:46:49;;;;;;;14.55;8.15;;;27.90;84.80;;;;;;5104420;28;20488;-71
2022/08/15 12:49:15;;;;;;;21.58;8.32;;;;;;;;;;5091420;28;20051;-71
2022/08/15 12:51:41;;;;;;;18.02;8.25;;;26.50;83.70;;;;;;5108949;28;20058;-71
2022/08/15 12:54:06;;;;;;;13.88;7.95;;;27.70;85.40;;;;;;5093570;28;20047;-71
2022/08/15 12:56:32;;;;;;;15.48;8.63;;;26.90;85.20;;;;;;5097536;28;20047;-71
2022/08/15 12:58:58;;;;;;;12.82;8.18;;;;;;;;;;5103053;28;20039;-71
2022/08/15 13:01:24;;;;;;;14.05;8.02;;;27.60;79.80;;;;;;5103035;28;20056;-71
2022/08/15 13:03:51;;;;;;;17.08;9.88;;;26.40;79.30;;;;;;5104052;28;20096;-71
2022/08/15 13:06:24;;;;;;;15.95;7.97;;;27.50;87.80;;;;;;5102103;28;20076;-71
2022/08/15 13:08:50;;;;;;;15.45;8.57;;;27.00;88.10;;;;;;5103452;28;20044;-71